Time;durP1;ratioP1;P1;durP2;ratioP2;P2;SDS_P1;SDS_P2;PMS_P1;PMS_P2;Temp;Humidity;BMP_temperature;BMP_pressure;BME280_temperature;BME280_humidity;BME280_pressure;Samples;Min_cycle;Max_cycle;Signal;HPM_P1;HPM_P2
2021/12/18 00:00:53;;;;;;;5.78;5.25;;;16.60;29.90;;;;;;5078974;28;20208;-63
2021/12/18 00:03:20;;;;;;;5.90;5.07;;;16.60;29.90;;;;;;5079249;28;20211;-64
2021/12/18 00:05:47;;;;;;;5.03;4.53;;;16.60;30.50;;;;;;5078783;28;20218;-63
2021/12/18 00:08:14;;;;;;;5.63;4.70;;;16.60;29.90;;;;;;5078256;28;20216;-64
2021/12/18 00:10:45;;;;;;;5.55;4.85;;;16.60;29.90;;;;;;5078163;28;20204;-63
2021/12/18 00:13:12;;;;;;;5.38;4.72;;;16.60;29.90;;;;;;5078392;28;20208;-63
2021/12/18 00:15:39;;;;;;;5.18;4.57;;;16.60;29.90;;;;;;5077946;28;20220;-63
2021/12/18 00:18:06;;;;;;;5.15;4.50;;;16.60;29.90;;;;;;5078453;28;20505;-64
2021/12/18 00:20:36;;;;;;;4.53;3.92;;;16.60;29.90;;;;;;5078106;28;20216;-64
2021/12/18 00:23:03;;;;;;;4.90;4.40;;;16.50;29.80;;;;;;5077972;28;20208;-63
2021/12/18 00:25:31;;;;;;;4.55;4.15;;;16.50;29.80;;;;;;5078152;28;20530;-64
2021/12/18 00:28:00;;;;;;;4.60;4.20;;;16.50;29.80;;;;;;5077917;28;20208;-64
2021/12/18 00:30:27;;;;;;;4.45;4.05;;;16.50;29.80;;;;;;5078262;28;20208;-64
2021/12/18 00:32:54;;;;;;;4.75;3.97;;;16.50;29.80;;;;;;5077795;28;20611;-63
2021/12/18 00:35:22;;;;;;;5.22;4.28;;;16.50;29.80;;;;;;5077451;28;20205;-63
2021/12/18 00:37:49;;;;;;;4.20;3.80;;;16.50;29.80;;;;;;5077562;28;20215;-64
2021/12/18 00:40:23;;;;;;;4.13;3.72;;;16.50;29.80;;;;;;5077451;28;20211;-64
2021/12/18 00:42:57;;;;;;;4.25;3.85;;;16.50;29.80;;;;;;5077380;28;20227;-63
2021/12/18 00:45:26;;;;;;;4.63;3.75;;;16.50;29.80;;;;;;5080125;28;20227;-63
2021/12/18 00:47:53;;;;;;;3.92;3.47;;;16.50;29.80;;;;;;5097665;28;20208;-64
2021/12/18 00:50:23;;;;;;;4.00;3.60;;;16.50;29.80;;;;;;5098434;28;20214;-63
2021/12/18 00:52:51;;;;;;;4.15;3.75;;;16.40;29.70;;;;;;5097566;28;20208;-64
2021/12/18 00:55:21;;;;;;;4.00;3.58;;;16.40;29.70;;;;;;5097739;28;20232;-64
2021/12/18 00:57:48;;;;;;;3.97;3.58;;;16.40;29.70;;;;;;5097420;28;20208;-64
2021/12/18 01:00:21;;;;;;;3.40;3.10;;;16.40;29.70;;;;;;5097801;28;20218;-63
2021/12/18 01:02:52;;;;;;;3.92;3.63;;;16.40;29.70;;;;;;5097713;28;20241;-63
2021/12/18 01:05:19;;;;;;;3.55;3.25;;;16.30;29.60;;;;;;5097759;28;20227;-63
2021/12/18 01:07:47;;;;;;;3.50;3.20;;;16.30;29.70;;;;;;5097535;28;20214;-64
2021/12/18 01:12:57;;;;;;;3.45;3.00;;;16.30;29.70;;;;;;5092970;28;20211;-63
2021/12/18 01:15:29;;;;;;;3.45;3.15;;;16.30;29.70;;;;;;5077088;28;20300;-63
2021/12/18 01:23:29;;;;;;;3.53;3.22;;;16.30;29.70;;;;;;5076415;28;20200;-64
2021/12/18 01:25:57;;;;;;;2.70;2.50;;;16.30;29.70;;;;;;5077218;28;20239;-64
2021/12/18 01:28:25;;;;;;;3.25;2.95;;;16.30;29.70;;;;;;5076786;28;20204;-64
2021/12/18 01:30:53;;;;;;;3.55;3.22;;;16.30;29.80;;;;;;5076231;28;20204;-63
2021/12/18 01:33:21;;;;;;;3.25;2.95;;;16.30;29.70;;;;;;5076497;28;20215;-64
2021/12/18 01:35:50;;;;;;;4.70;2.80;;;16.30;30.30;;;;;;5076460;28;20212;-64
2021/12/18 01:38:17;;;;;;;2.92;2.60;;;16.30;29.80;;;;;;5081264;28;20201;-64
2021/12/18 01:40:45;;;;;;;3.67;2.60;;;16.30;29.80;;;;;;5092140;28;20286;-63
2021/12/18 01:46:15;;;;;;;2.78;2.58;;;16.30;29.70;;;;;;5095580;28;20226;-63
2021/12/18 01:51:45;;;;;;;2.90;2.53;;;16.40;29.80;;;;;;5096284;28;20610;-64
2021/12/18 01:54:13;;;;;;;3.53;2.80;;;16.30;29.80;;;;;;5083849;28;20196;-64
2021/12/18 01:56:41;;;;;;;3.78;2.95;;;16.40;29.90;;;;;;5096865;28;20211;-63
2021/12/18 01:59:08;;;;;;;2.70;2.50;;;16.30;29.90;;;;;;5087666;28;20492;-64
2021/12/18 02:01:35;;;;;;;2.85;2.50;;;16.40;30.00;;;;;;5076244;28;20212;-63
2021/12/18 02:04:04;;;;;;;2.85;2.65;;;16.40;30.30;;;;;;5075931;28;20228;-64
2021/12/18 02:06:32;;;;;;;2.75;2.40;;;16.40;30.00;;;;;;5076807;28;20215;-63
2021/12/18 02:08:59;;;;;;;2.50;2.30;;;16.40;30.00;;;;;;5077608;28;20201;-63
2021/12/18 02:11:30;;;;;;;2.65;2.40;;;16.40;30.00;;;;;;5076680;28;20516;-63
2021/12/18 02:14:21;;;;;;;2.70;2.22;;;16.40;30.00;;;;;;5060400;28;20204;-63
2021/12/18 02:19:51;;;;;;;5.93;2.85;;;16.50;30.20;;;;;;5093289;28;20308;-64
2021/12/18 02:22:22;;;;;;;2.75;2.50;;;16.50;30.30;;;;;;5095050;28;20272;-63
2021/12/18 02:24:50;;;;;;;2.70;2.50;;;16.50;30.40;;;;;;5077943;28;20610;-63
2021/12/18 02:27:17;;;;;;;2.53;2.22;;;16.50;30.40;;;;;;5095316;28;20217;-63
2021/12/18 02:29:45;;;;;;;2.55;2.35;;;16.50;31.20;;;;;;5096080;28;20222;-64
2021/12/18 02:32:15;;;;;;;2.47;2.28;;;16.50;30.30;;;;;;5091853;28;20200;-63
2021/12/18 02:34:51;;;;;;;2.92;2.20;;;16.50;30.30;;;;;;5086599;28;20200;-63
2021/12/18 02:37:27;;;;;;;3.38;1.98;;;16.50;30.30;;;;;;5094288;28;20290;-63
2021/12/18 02:40:49;;;;;;;2.20;2.00;;;16.50;30.20;;;;;;5095901;28;20205;-63
2021/12/18 02:42:52;;;;;;;2.47;2.28;;;16.50;30.20;;;;;;5096334;28;20641;-63
2021/12/18 02:45:21;;;;;;;2.58;2.35;;;16.50;30.10;;;;;;5095996;28;20277;-63
2021/12/18 02:47:49;;;;;;;2.70;2.35;;;16.50;30.00;;;;;;5095984;28;20562;-63
2021/12/18 02:50:16;;;;;;;2.53;2.33;;;16.50;30.00;;;;;;5096258;28;20207;-63
2021/12/18 02:52:44;;;;;;;2.47;2.28;;;16.50;30.00;;;;;;5096084;28;20212;-62
2021/12/18 02:55:12;;;;;;;2.88;2.22;;;16.50;30.00;;;;;;5088496;28;20231;-62
2021/12/18 02:57:39;;;;;;;2.60;2.40;;;16.50;30.00;;;;;;5109562;28;20222;-63
2021/12/18 03:00:07;;;;;;;3.30;2.28;;;16.50;30.00;;;;;;5095609;28;20866;-62
2021/12/18 03:02:40;;;;;;;2.25;2.05;;;16.50;30.00;;;;;;5092881;28;20195;-63
2021/12/18 03:05:11;;;;;;;2.53;2.33;;;16.50;30.00;;;;;;5090893;28;20233;-62
2021/12/18 03:07:38;;;;;;;2.42;2.22;;;16.50;29.90;;;;;;5095723;28;20250;-62
2021/12/18 03:24:07;;;;;;;2.30;2.10;;;16.40;29.80;;;;;;5095509;28;20291;-63
2021/12/18 03:26:36;;;;;;;2.25;2.05;;;16.40;29.80;;;;;;5095444;28;20215;-62
2021/12/18 03:29:04;;;;;;;2.42;2.22;;;16.40;29.80;;;;;;5095361;28;20226;-62
2021/12/18 03:31:33;;;;;;;2.50;2.30;;;16.40;29.80;;;;;;5095353;28;20208;-62
2021/12/18 03:34:01;;;;;;;2.47;2.28;;;16.40;29.80;;;;;;5095517;28;20488;-63
2021/12/18 03:36:28;;;;;;;2.53;2.33;;;16.40;29.80;;;;;;5096060;28;20195;-63
2021/12/18 03:38:55;;;;;;;2.03;1.92;;;16.40;29.80;;;;;;5095373;28;20616;-62
2021/12/18 03:41:22;;;;;;;2.50;2.30;;;16.40;29.80;;;;;;5095788;28;20204;-63
2021/12/18 03:43:51;;;;;;;2.30;2.10;;;16.40;29.80;;;;;;5095792;28;20204;-63
2021/12/18 03:46:18;;;;;;;2.10;1.90;;;16.40;29.80;;;;;;5095107;28;20234;-63
2021/12/18 03:48:45;;;;;;;2.47;2.28;;;16.40;29.70;;;;;;5095564;28;20208;-63
2021/12/18 03:51:12;;;;;;;2.47;2.28;;;16.40;29.80;;;;;;5095902;28;20219;-63
2021/12/18 03:53:39;;;;;;;2.30;2.08;;;16.40;29.70;;;;;;5095902;28;20203;-63
2021/12/18 03:56:06;;;;;;;2.35;2.15;;;16.40;29.80;;;;;;5097084;28;20304;-63
2021/12/18 03:58:33;;;;;;;2.45;1.98;;;16.30;29.60;;;;;;5078820;28;20216;-62
2021/12/18 04:01:02;;;;;;;2.40;2.20;;;16.30;29.70;;;;;;5076798;28;20215;-62
2021/12/18 04:03:29;;;;;;;2.67;2.47;;;16.30;29.70;;;;;;5076657;28;20204;-62
2021/12/18 04:05:56;;;;;;;2.30;2.10;;;16.30;29.70;;;;;;5076873;28;20638;-62
2021/12/18 04:08:23;;;;;;;2.45;2.25;;;16.30;29.70;;;;;;5077643;28;20463;-62
2021/12/18 04:10:51;;;;;;;2.38;2.17;;;16.30;29.60;;;;;;5080597;28;20211;-63
2021/12/18 04:13:18;;;;;;;2.95;2.47;;;16.30;29.70;;;;;;5080252;28;20216;-63
2021/12/18 04:15:45;;;;;;;2.47;2.20;;;16.30;29.70;;;;;;5080331;28;20211;-63
2021/12/18 04:18:13;;;;;;;2.42;2.22;;;16.30;29.70;;;;;;5080087;28;20204;-63
2021/12/18 04:20:40;;;;;;;2.05;1.90;;;16.30;29.70;;;;;;5080312;28;20216;-62
2021/12/18 04:23:08;;;;;;;2.40;2.20;;;16.30;29.60;;;;;;5080215;28;20204;-62
2021/12/18 04:25:35;;;;;;;2.28;2.08;;;16.20;29.50;;;;;;5092659;28;20607;-63
2021/12/18 04:28:02;;;;;;;2.30;2.10;;;16.30;29.60;;;;;;5100246;28;20196;-63
2021/12/18 04:30:29;;;;;;;2.60;2.40;;;16.30;29.70;;;;;;5100106;28;20207;-63
2021/12/18 04:32:56;;;;;;;2.22;2.03;;;16.20;29.60;;;;;;5099237;28;20270;-62
2021/12/18 04:35:25;;;;;;;2.20;2.00;;;16.20;29.60;;;;;;5100203;28;20199;-63
2021/12/18 04:37:52;;;;;;;2.15;1.95;;;16.20;29.60;;;;;;5100442;28;20218;-63
2021/12/18 04:40:24;;;;;;;2.20;2.00;;;16.20;29.60;;;;;;5100185;28;20200;-62
2021/12/18 04:42:51;;;;;;;2.22;2.00;;;16.20;29.60;;;;;;5099724;28;20217;-63
2021/12/18 04:45:18;;;;;;;2.20;2.00;;;16.20;29.60;;;;;;5099781;28;20259;-62
2021/12/18 04:47:46;;;;;;;2.25;2.05;;;16.20;29.70;;;;;;5099663;28;20203;-62
2021/12/18 04:50:13;;;;;;;2.10;2.00;;;16.20;29.60;;;;;;5100102;28;20195;-62
2021/12/18 04:52:42;;;;;;;2.25;1.92;;;16.20;29.60;;;;;;5089844;28;20286;-62
2021/12/18 04:55:09;;;;;;;1.80;1.70;;;16.20;29.60;;;;;;5079056;28;20240;-62
2021/12/18 04:57:36;;;;;;;2.00;1.90;;;16.20;29.60;;;;;;5079012;28;20219;-63
2021/12/18 05:00:05;;;;;;;2.72;1.75;;;16.20;29.70;;;;;;5079307;28;20215;-63
2021/12/18 05:02:37;;;;;;;2.30;2.10;;;16.20;29.60;;;;;;5079486;28;20236;-63
2021/12/18 05:05:05;;;;;;;2.10;1.90;;;16.20;29.70;;;;;;5079056;28;20232;-63
2021/12/18 05:07:32;;;;;;;2.33;2.13;;;16.20;29.60;;;;;;5079143;28;20204;-63
2021/12/18 05:10:01;;;;;;;2.47;2.05;;;16.20;29.60;;;;;;5078821;28;20222;-63
2021/12/18 05:12:28;;;;;;;2.33;2.00;;;16.10;29.50;;;;;;5079194;28;20219;-63
2021/12/18 05:14:56;;;;;;;2.20;2.00;;;16.10;29.60;;;;;;5079386;28;20215;-62
2021/12/18 05:17:23;;;;;;;2.13;1.92;;;16.10;29.60;;;;;;5079334;28;20477;-62
2021/12/18 05:19:50;;;;;;;2.28;2.10;;;16.10;29.60;;;;;;5088828;28;20200;-62
2021/12/18 05:22:17;;;;;;;2.38;2.17;;;16.10;29.60;;;;;;5098961;28;20204;-62
2021/12/18 05:24:44;;;;;;;1.88;1.75;;;16.10;29.60;;;;;;5099298;28;20595;-62
2021/12/18 05:27:13;;;;;;;2.30;2.10;;;16.10;29.60;;;;;;5099039;28;20215;-62
2021/12/18 05:29:40;;;;;;;2.20;2.00;;;16.10;29.60;;;;;;5098748;28;20215;-63
2021/12/18 05:32:08;;;;;;;1.77;1.67;;;16.00;29.60;;;;;;5099048;28;20464;-62
2021/12/18 05:34:37;;;;;;;2.13;2.00;;;16.10;29.60;;;;;;5098929;28;20218;-63
2021/12/18 05:37:19;;;;;;;1.80;1.70;;;16.10;29.60;;;;;;5098763;28;20490;-62
2021/12/18 05:39:48;;;;;;;1.98;1.88;;;16.10;29.60;;;;;;5098578;28;20497;-63
2021/12/18 05:42:17;;;;;;;1.92;1.83;;;16.10;29.70;;;;;;5098868;28;20211;-63
2021/12/18 05:44:44;;;;;;;1.80;1.70;;;16.00;29.60;;;;;;5098926;28;20215;-63
2021/12/18 05:47:12;;;;;;;1.63;1.52;;;16.00;29.60;;;;;;5080582;28;20219;-63
2021/12/18 05:49:39;;;;;;;2.30;1.80;;;16.00;29.60;;;;;;5077291;28;20208;-63
2021/12/18 05:52:07;;;;;;;2.03;1.77;;;16.00;29.60;;;;;;5077023;28;20234;-62
2021/12/18 05:54:36;;;;;;;1.95;1.80;;;16.00;29.60;;;;;;5076888;28;20224;-62
2021/12/18 05:57:04;;;;;;;2.00;1.80;;;16.00;29.60;;;;;;5077476;28;20526;-62
2021/12/18 05:59:33;;;;;;;2.45;1.60;;;16.00;29.60;;;;;;5077360;28;20211;-62
2021/12/18 06:02:00;;;;;;;1.70;1.60;;;16.00;29.60;;;;;;5076909;28;20208;-62
2021/12/18 06:04:27;;;;;;;2.28;2.08;;;16.00;29.60;;;;;;5076927;28;20200;-62
2021/12/18 06:07:03;;;;;;;1.80;1.70;;;16.00;29.60;;;;;;5076154;28;20232;-62
2021/12/18 06:09:31;;;;;;;2.00;1.90;;;16.00;29.60;;;;;;5076534;28;20273;-62
2021/12/18 06:11:58;;;;;;;1.92;1.83;;;16.00;29.60;;;;;;5076629;28;20269;-62
2021/12/18 06:14:26;;;;;;;1.95;1.75;;;15.90;29.50;;;;;;5092637;28;20210;-63
2021/12/18 06:16:54;;;;;;;1.73;1.63;;;16.00;29.60;;;;;;5097048;28;20234;-62
2021/12/18 06:19:21;;;;;;;1.58;1.48;;;15.90;29.50;;;;;;5096735;28;20208;-62
2021/12/18 06:21:49;;;;;;;1.58;1.48;;;16.00;29.60;;;;;;5096545;28;20215;-63
2021/12/18 06:24:16;;;;;;;2.00;1.80;;;15.90;29.50;;;;;;5096668;28;20520;-62
2021/12/18 06:26:44;;;;;;;1.58;1.48;;;15.90;29.50;;;;;;5096329;28;20227;-63
2021/12/18 06:29:12;;;;;;;1.88;1.67;;;15.90;29.50;;;;;;5096599;28;20235;-63
2021/12/18 06:31:39;;;;;;;1.70;1.60;;;15.90;29.50;;;;;;5095629;28;20248;-63
2021/12/18 06:34:08;;;;;;;1.40;1.30;;;15.90;29.50;;;;;;5096426;28;20290;-63
2021/12/18 06:36:35;;;;;;;1.70;1.60;;;15.90;29.50;;;;;;5096358;28;20216;-62
2021/12/18 06:39:03;;;;;;;1.70;1.60;;;15.90;29.60;;;;;;5096184;28;20215;-62
2021/12/18 06:41:30;;;;;;;2.47;1.70;;;15.90;29.50;;;;;;5095905;28;20496;-63
2021/12/18 06:43:58;;;;;;;1.60;1.50;;;15.90;29.50;;;;;;5096249;28;20208;-62
2021/12/18 06:46:25;;;;;;;1.83;1.73;;;15.90;29.60;;;;;;5096479;28;20618;-63
2021/12/18 06:48:52;;;;;;;1.60;1.50;;;15.90;29.50;;;;;;5096372;28;20207;-62
2021/12/18 06:51:21;;;;;;;1.83;1.52;;;15.90;29.50;;;;;;5096188;28;20204;-63
2021/12/18 06:53:49;;;;;;;1.52;1.42;;;15.90;29.60;;;;;;5096443;28;20207;-62
2021/12/18 06:56:16;;;;;;;1.65;1.55;;;15.90;29.50;;;;;;5095474;28;20235;-63
2021/12/18 06:58:43;;;;;;;1.67;1.58;;;15.80;29.60;;;;;;5095966;28;20215;-63
2021/12/18 07:01:11;;;;;;;1.60;1.50;;;15.80;29.50;;;;;;5096071;28;20212;-63
2021/12/18 07:03:38;;;;;;;1.30;1.20;;;15.80;29.50;;;;;;5095859;28;20215;-63
2021/12/18 07:06:05;;;;;;;1.40;1.30;;;15.80;29.50;;;;;;5095869;28;20238;-63
2021/12/18 07:08:33;;;;;;;1.52;1.30;;;15.80;29.50;;;;;;5095937;28;20629;-63
2021/12/18 07:11:01;;;;;;;1.60;1.50;;;15.80;29.60;;;;;;5096094;28;20560;-63
2021/12/18 07:13:28;;;;;;;1.50;1.40;;;15.80;29.50;;;;;;5096163;28;20208;-63
2021/12/18 07:15:55;;;;;;;1.40;1.30;;;15.80;29.60;;;;;;5095744;28;20622;-62
2021/12/18 07:18:23;;;;;;;1.50;1.40;;;15.80;29.60;;;;;;5095845;28;20261;-62
2021/12/18 07:20:51;;;;;;;1.80;1.67;;;15.80;29.60;;;;;;5095745;28;20227;-62
2021/12/18 07:23:18;;;;;;;1.80;1.30;;;15.80;29.60;;;;;;5095702;28;20765;-62
2021/12/18 07:25:47;;;;;;;1.30;1.20;;;15.80;29.60;;;;;;5095658;28;20234;-62
2021/12/18 07:28:14;;;;;;;1.48;1.38;;;15.80;29.60;;;;;;5096277;28;20227;-63
2021/12/18 07:30:41;;;;;;;1.85;1.20;;;15.80;29.60;;;;;;5100272;28;20610;-63
2021/12/18 07:33:11;;;;;;;1.20;1.10;;;15.70;29.60;;;;;;5095548;28;20207;-63
2021/12/18 07:35:38;;;;;;;1.40;1.30;;;15.70;29.60;;;;;;5095870;28;20470;-62
2021/12/18 07:38:06;;;;;;;1.50;1.40;;;15.70;29.60;;;;;;5095235;28;20204;-63
2021/12/18 07:40:34;;;;;;;1.33;1.23;;;15.70;29.60;;;;;;5095402;28;20208;-62
2021/12/18 07:43:03;;;;;;;1.50;1.40;;;15.70;29.60;;;;;;5095194;28;20614;-63
2021/12/18 07:45:33;;;;;;;1.23;1.13;;;15.70;29.60;;;;;;5098817;28;20216;-63
2021/12/18 07:48:00;;;;;;;1.52;1.42;;;15.70;29.60;;;;;;5099525;28;20277;-62
2021/12/18 07:50:29;;;;;;;1.40;1.30;;;15.70;29.60;;;;;;5099057;28;20733;-62
2021/12/18 07:52:56;;;;;;;1.60;1.50;;;15.70;29.60;;;;;;5098785;28;20203;-62
2021/12/18 07:55:23;;;;;;;1.20;1.10;;;15.70;29.60;;;;;;5098549;28;20230;-62
2021/12/18 07:57:51;;;;;;;1.48;1.38;;;15.70;29.60;;;;;;5098301;28;20204;-62
2021/12/18 08:00:21;;;;;;;1.40;1.30;;;15.70;29.60;;;;;;5098733;28;20273;-62
2021/12/18 08:02:49;;;;;;;1.25;1.15;;;15.70;29.60;;;;;;5098539;28;20226;-62
2021/12/18 08:05:16;;;;;;;1.20;1.10;;;15.60;29.50;;;;;;5098299;28;20214;-62
2021/12/18 08:07:43;;;;;;;1.20;1.10;;;15.70;29.60;;;;;;5098376;28;20239;-62
2021/12/18 08:10:11;;;;;;;1.38;1.27;;;15.60;29.60;;;;;;5098887;28;20204;-62
2021/12/18 08:12:38;;;;;;;1.48;1.30;;;15.60;29.60;;;;;;5098845;28;20227;-62
2021/12/18 08:15:07;;;;;;;1.33;1.23;;;15.60;29.60;;;;;;5098577;28;20208;-62
2021/12/18 08:17:37;;;;;;;7.25;1.33;;;15.60;29.60;;;;;;5098602;28;20204;-62
2021/12/18 08:20:04;;;;;;;5.85;1.60;;;15.60;29.80;;;;;;5098228;28;20219;-62
2021/12/18 08:22:32;;;;;;;4.45;1.52;;;15.60;29.80;;;;;;5098762;28;20223;-62
2021/12/18 08:25:00;;;;;;;8.73;1.60;;;15.60;29.60;;;;;;5098763;28;20207;-62
2021/12/18 08:27:28;;;;;;;3.85;1.27;;;15.60;29.70;;;;;;5098348;28;20235;-63
2021/12/18 08:29:55;;;;;;;2.40;1.13;;;15.60;29.60;;;;;;5098400;28;20579;-62
2021/12/18 08:32:23;;;;;;;3.33;1.38;;;15.50;29.60;;;;;;5097985;28;20208;-62
2021/12/18 08:34:52;;;;;;;2.60;1.42;;;15.60;29.70;;;;;;5098130;28;20207;-62
2021/12/18 08:37:20;;;;;;;2.75;1.30;;;15.60;29.70;;;;;;5098218;28;20273;-63
2021/12/18 08:39:47;;;;;;;5.13;1.50;;;15.50;29.60;;;;;;5098374;28;20208;-62
2021/12/18 08:42:14;;;;;;;2.00;1.42;;;15.60;29.70;;;;;;5097881;28;20222;-62
2021/12/18 08:44:41;;;;;;;2.80;1.10;;;15.60;29.70;;;;;;5097832;28;20213;-62
2021/12/18 08:47:10;;;;;;;2.08;1.30;;;15.50;29.60;;;;;;5097234;28;20626;-62
2021/12/18 08:49:38;;;;;;;1.30;1.10;;;15.50;29.60;;;;;;5097220;28;20760;-62
2021/12/18 08:52:07;;;;;;;3.25;1.40;;;15.50;29.60;;;;;;5097630;28;20207;-62
2021/12/18 08:54:34;;;;;;;3.70;1.40;;;15.50;29.60;;;;;;5096741;28;20231;-62
2021/12/18 08:57:01;;;;;;;2.53;1.27;;;15.50;29.60;;;;;;5096936;28;20212;-62
2021/12/18 08:59:28;;;;;;;2.22;1.60;;;15.50;29.60;;;;;;5096790;28;20203;-62
2021/12/18 09:01:55;;;;;;;2.65;1.55;;;15.50;29.60;;;;;;5097232;28;20208;-62
2021/12/18 09:04:22;;;;;;;2.08;1.50;;;15.50;29.70;;;;;;5096891;28;20207;-63
2021/12/18 09:06:49;;;;;;;2.00;1.40;;;15.50;29.80;;;;;;5096566;28;20302;-63
2021/12/18 09:09:18;;;;;;;3.08;1.40;;;15.50;29.80;;;;;;5095226;28;20395;-63
2021/12/18 09:11:45;;;;;;;2.45;1.50;;;15.50;29.70;;;;;;5094913;28;20211;-62
2021/12/18 09:14:12;;;;;;;2.88;1.42;;;15.60;29.90;;;;;;5094472;28;20570;-62
2021/12/18 09:16:41;;;;;;;3.08;1.33;;;15.60;29.90;;;;;;5094317;28;20218;-62
2021/12/18 09:19:08;;;;;;;2.38;1.50;;;15.60;30.00;;;;;;5094901;28;20203;-63
2021/12/18 09:21:35;;;;;;;1.42;1.27;;;15.60;30.00;;;;;;5095194;28;20199;-63
2021/12/18 09:24:02;;;;;;;3.05;1.40;;;15.60;30.00;;;;;;5095127;28;20207;-63
2021/12/18 09:26:31;;;;;;;2.13;1.38;;;15.60;30.00;;;;;;5095961;28;20598;-63
2021/12/18 09:28:59;;;;;;;2.35;1.30;;;15.60;30.00;;;;;;5094667;28;20210;-63
2021/12/18 09:31:26;;;;;;;2.40;1.20;;;15.70;30.20;;;;;;5095482;28;20260;-63
2021/12/18 09:33:53;;;;;;;2.25;1.20;;;15.60;30.00;;;;;;5091245;28;20238;-63
2021/12/18 09:36:21;;;;;;;5.32;1.60;;;15.70;30.20;;;;;;5104515;28;20286;-62
2021/12/18 09:38:48;;;;;;;1.33;1.23;;;15.70;30.20;;;;;;5095204;28;20668;-63
2021/12/18 09:41:16;;;;;;;1.30;1.10;;;15.70;30.20;;;;;;5095666;28;20507;-63
2021/12/18 09:43:44;;;;;;;1.58;1.40;;;15.70;30.20;;;;;;5095155;28;20218;-62
2021/12/18 09:46:14;;;;;;;1.40;1.30;;;15.70;30.20;;;;;;5094339;28;20204;-62
2021/12/18 09:48:43;;;;;;;1.60;1.50;;;15.70;30.20;;;;;;5095483;28;20212;-62
2021/12/18 09:51:21;;;;;;;1.63;1.40;;;15.70;30.30;;;;;;5094534;28;20208;-62
2021/12/18 09:53:48;;;;;;;1.80;1.38;;;15.80;30.20;;;;;;5094927;28;20213;-62
2021/12/18 09:56:16;;;;;;;1.52;1.38;;;15.80;30.30;;;;;;5095014;28;20661;-62
2021/12/18 09:58:44;;;;;;;1.50;1.38;;;15.80;30.30;;;;;;5095212;28;20517;-63
2021/12/18 10:01:11;;;;;;;5.68;1.60;;;15.80;30.20;;;;;;5094849;28;20492;-62
2021/12/18 10:03:49;;;;;;;1.70;1.15;;;15.80;30.20;;;;;;5094551;28;20233;-63
2021/12/18 10:06:33;;;;;;;1.50;1.38;;;15.80;30.20;;;;;;5094521;28;20200;-63
2021/12/18 10:09:00;;;;;;;1.65;1.35;;;15.80;30.10;;;;;;5094896;28;20590;-63
2021/12/18 10:11:27;;;;;;;2.05;1.52;;;15.80;30.10;;;;;;5094301;28;20203;-62
2021/12/18 10:13:57;;;;;;;1.80;1.35;;;15.80;30.10;;;;;;5094458;28;20217;-63
2021/12/18 10:16:27;;;;;;;1.38;1.20;;;15.90;30.20;;;;;;5094826;28;20242;-63
2021/12/18 10:18:55;;;;;;;2.35;1.25;;;15.80;30.00;;;;;;5093808;28;20207;-63
2021/12/18 10:21:24;;;;;;;1.55;1.45;;;15.80;30.00;;;;;;5093714;28;20215;-63
2021/12/18 10:23:54;;;;;;;1.27;1.17;;;15.90;30.00;;;;;;5094213;28;20530;-63
2021/12/18 10:26:37;;;;;;;3.17;1.65;;;15.90;30.00;;;;;;5094592;28;20203;-62
2021/12/18 10:29:22;;;;;;;2.60;1.20;;;15.90;30.00;;;;;;5094356;28;20215;-63
2021/12/18 10:31:49;;;;;;;1.40;1.30;;;15.90;30.00;;;;;;5093846;28;20216;-63
2021/12/18 10:34:19;;;;;;;1.92;1.30;;;15.90;30.00;;;;;;5094005;28;20207;-62
2021/12/18 10:37:13;;;;;;;2.10;1.23;;;15.90;30.00;;;;;;5094014;28;20200;-63
2021/12/18 10:39:44;;;;;;;1.95;1.20;;;15.80;29.90;;;;;;5092880;28;20211;-63
2021/12/18 10:42:20;;;;;;;1.30;1.20;;;15.90;29.90;;;;;;5093969;28;20214;-63
2021/12/18 10:45:23;;;;;;;1.40;1.10;;;15.90;29.90;;;;;;5093720;28;20526;-63
2021/12/18 10:47:54;;;;;;;2.15;1.20;;;15.90;29.90;;;;;;5072204;28;20324;-62
2021/12/18 10:50:27;;;;;;;1.30;1.20;;;15.90;29.90;;;;;;5078650;28;20196;-63
2021/12/18 10:52:59;;;;;;;1.63;1.17;;;15.90;29.80;;;;;;5073072;28;20209;-63
2021/12/18 10:55:33;;;;;;;1.23;1.13;;;15.90;29.80;;;;;;5073178;28;20235;-63
2021/12/18 10:58:03;;;;;;;1.33;1.20;;;15.90;29.80;;;;;;5073431;28;20201;-62
2021/12/18 11:00:42;;;;;;;1.60;1.20;;;15.90;29.80;;;;;;5073388;28;20589;-62
2021/12/18 11:03:25;;;;;;;1.20;1.10;;;15.90;29.80;;;;;;5073049;28;20211;-63
2021/12/18 11:06:22;;;;;;;1.20;1.10;;;15.90;29.80;;;;;;5073721;28;20212;-62
2021/12/18 11:09:00;;;;;;;1.20;1.10;;;15.90;29.80;;;;;;5073477;28;20228;-63
2021/12/18 11:14:17;;;;;;;1.92;1.10;;;15.90;29.70;;;;;;5073428;28;20734;-63
2021/12/18 11:16:48;;;;;;;1.20;1.10;;;15.90;29.70;;;;;;5073555;28;20208;-62
2021/12/18 11:19:18;;;;;;;1.40;1.30;;;15.80;29.60;;;;;;5076488;28;20314;-62
2021/12/18 11:21:47;;;;;;;2.33;1.17;;;15.90;29.70;;;;;;5077411;28;20668;-62
2021/12/18 11:24:16;;;;;;;1.30;1.20;;;15.90;29.70;;;;;;5077269;28;20208;-62
2021/12/18 11:26:50;;;;;;;1.42;1.05;;;15.90;29.60;;;;;;5077535;28;20513;-63
2021/12/18 11:29:22;;;;;;;1.30;1.00;;;15.90;29.70;;;;;;5077171;28;20223;-63
2021/12/18 11:31:51;;;;;;;2.75;1.10;;;15.90;29.60;;;;;;5076938;28;20211;-63
2021/12/18 11:34:18;;;;;;;1.20;1.00;;;15.90;29.60;;;;;;5077478;28;20244;-62
2021/12/18 11:36:48;;;;;;;1.05;1.00;;;15.90;29.60;;;;;;5077626;28;20203;-62
2021/12/18 11:39:19;;;;;;;1.10;1.00;;;15.80;29.50;;;;;;5077054;28;20210;-62
2021/12/18 11:41:50;;;;;;;1.15;1.05;;;15.90;29.60;;;;;;5084839;28;20207;-62
2021/12/18 11:44:29;;;;;;;1.20;1.10;;;15.80;29.50;;;;;;5097083;28;20204;-62
2021/12/18 11:46:59;;;;;;;1.10;1.00;;;15.80;29.60;;;;;;5096865;28;20210;-62
2021/12/18 11:49:42;;;;;;;1.33;0.93;;;15.90;29.60;;;;;;5087254;28;20199;-62
2021/12/18 11:52:10;;;;;;;3.30;1.15;;;15.80;29.60;;;;;;5075714;28;20218;-62
2021/12/18 11:54:44;;;;;;;1.10;1.00;;;15.80;29.50;;;;;;5086659;28;20615;-63
2021/12/18 11:57:12;;;;;;;1.00;0.90;;;15.80;29.50;;;;;;5098418;28;20288;-62
2021/12/18 11:59:41;;;;;;;0.98;0.90;;;15.80;29.50;;;;;;5094985;28;20203;-62
2021/12/18 12:02:12;;;;;;;10.02;8.75;;;15.80;29.50;;;;;;5096614;28;20499;-62
2021/12/18 12:05:09;;;;;;;9.85;7.68;;;15.80;29.50;;;;;;5081629;28;20192;-62
2021/12/18 12:07:37;;;;;;;6.15;5.40;;;15.80;29.60;;;;;;5014062;28;20222;-62
2021/12/18 12:10:13;;;;;;;8.25;5.28;;;15.80;29.50;;;;;;5063181;28;20204;-62
2021/12/18 12:12:53;;;;;;;7.65;4.68;;;15.80;29.50;;;;;;5079215;28;20215;-62
2021/12/18 12:15:22;;;;;;;5.47;4.07;;;15.80;29.60;;;;;;5076769;28;20214;-62
2021/12/18 12:17:57;;;;;;;6.38;4.28;;;15.80;29.60;;;;;;5077528;28;20197;-62
2021/12/18 12:20:37;;;;;;;5.35;4.10;;;15.80;29.60;;;;;;5076637;28;20203;-63
2021/12/18 12:23:04;;;;;;;4.70;3.78;;;15.80;29.70;;;;;;5076331;28;20208;-63
2021/12/18 12:25:41;;;;;;;4.82;4.00;;;15.80;29.70;;;;;;5077081;28;20719;-63
2021/12/18 12:28:10;;;;;;;3.85;3.40;;;15.80;29.70;;;;;;5089232;28;20738;-63
2021/12/18 12:30:43;;;;;;;3.97;3.58;;;15.80;29.70;;;;;;5095911;28;20507;-63
2021/12/18 12:33:20;;;;;;;4.05;3.60;;;15.80;29.70;;;;;;5096629;28;20212;-62
2021/12/18 12:36:10;;;;;;;4.55;3.47;;;15.90;29.80;;;;;;5097212;28;20218;-62
2021/12/18 12:38:41;;;;;;;3.70;3.30;;;15.80;29.70;;;;;;5074644;28;20196;-63
2021/12/18 12:41:33;;;;;;;35.92;27.50;;;15.90;29.80;;;;;;5076215;28;20215;-63
2021/12/18 12:44:12;;;;;;;30.92;24.55;;;15.90;29.80;;;;;;5062409;28;20205;-63
2021/12/18 12:46:40;;;;;;;26.48;20.85;;;15.80;29.80;;;;;;5056172;28;20296;-62
2021/12/18 12:49:12;;;;;;;22.98;17.55;;;15.90;29.70;;;;;;5055326;28;20225;-63
2021/12/18 12:52:07;;;;;;;41.75;32.28;;;15.80;29.70;;;;;;5055657;28;20211;-64
2021/12/18 12:55:00;;;;;;;34.03;25.38;;;15.90;29.80;;;;;;5055868;28;20826;-63
2021/12/18 12:57:55;;;;;;;28.67;22.67;;;15.90;30.10;;;;;;5068826;28;20191;-63
2021/12/18 13:00:41;;;;;;;27.13;21.60;;;15.90;29.80;;;;;;5096050;28;20280;-63
2021/12/18 13:03:27;;;;;;;27.63;19.90;;;15.90;29.80;;;;;;5095925;28;20547;-62
2021/12/18 13:06:11;;;;;;;23.48;18.38;;;15.90;29.80;;;;;;5096349;28;20214;-63
2021/12/18 13:08:40;;;;;;;26.13;18.70;;;15.90;29.90;;;;;;5079753;28;20260;-63
2021/12/18 13:11:09;;;;;;;615.15;556.13;;;15.90;29.90;;;;;;5075735;28;20205;-62
2021/12/18 13:13:37;;;;;;;411.58;371.35;;;15.90;29.80;;;;;;5075009;28;20254;-63
2021/12/18 13:16:10;;;;;;;355.08;321.23;;;15.90;29.90;;;;;;5074892;28;20292;-63
2021/12/18 13:18:40;;;;;;;347.85;314.45;;;15.90;29.90;;;;;;5091181;28;20207;-63
2021/12/18 13:21:11;;;;;;;330.13;298.85;;;15.90;30.00;;;;;;5095956;28;20207;-62
2021/12/18 13:23:57;;;;;;;311.83;282.95;;;15.90;30.00;;;;;;5095864;28;20207;-62
2021/12/18 13:26:32;;;;;;;296.10;268.38;;;16.00;30.10;;;;;;5095334;28;20272;-62
2021/12/18 13:29:08;;;;;;;280.13;254.02;;;16.00;30.20;;;;;;5077419;28;20476;-63
2021/12/18 13:31:44;;;;;;;266.88;241.77;;;16.00;30.10;;;;;;5075149;28;20624;-63
2021/12/18 13:34:13;;;;;;;257.83;233.90;;;16.00;30.20;;;;;;5075829;28;20207;-63